Magnolia, Washington
Current Conditions -  °F | °C
As of 4:53 PM on Monday 22 Dec 2014 (Local Time) from KBFI Reporting Station
Broken Clouds Broken Clouds  
Wind Chill: 51°   Ceiling: 15000
Heat Index: 51°   Visibility: 10mi
Dew Point: 41°   Wind: 0mph
Humidity: 68%   Direction: NA
Pressure: 30.37"   Gusts: NA
Location:  47.6473°N, 122.399°W
Report Text: KBFI 230053Z 00000KT 10SM BKN150 11/05 A3037 RMK AO2 SLP283 T01060050
Loading
Personal Weather Stations






























Interactive Weather Map New forecast layout! Learn more

10-Day Weather Forecast

Advertisements
Track Severe Weather on mobile